HWYWARRENTON/FAUQUIER
METARs for airports near HWY, sorted by distance:
N 0 nm 336' KHWY 142335Z 16003KT 10SM CLR 32/19 A2996
SW 7 nm 315' KCJR 142335Z 00000KT CLR 33/19 A2996
NE 12 nm 192' KHEF 142256Z 17007KT 10SM CLR 33/22 A2995
SE 16 nm 219' KRMN 142335Z 17004KT 10SM CLR 33/17 A2995
E 19 nm 10' KNYG 142256Z 5SM CLR 34/21 A2995
SE 22 nm 85' KEZF 142335Z 17004KT 10SM CLR 32/22 A2994
NE 24 nm 312' KIAD 142252Z 20008KT 10SM FEW090 FEW250 34/18 A2994
SW 25 nm 464' KOMH 142335Z 00000KT 10SM CLR 31/22 A2998
E 26 nm 73' KDAA 142255Z 15005KT 10SM CLR 35/19 A2992
N 30 nm 389' KJYO 142335Z 22004KT 10SM CLR 34/21 A2996
NW 32 nm 703' KFRR 142335Z 20003KT 10SM CLR 32/18 A2997
SW 33 nm 454' KGVE 142335Z 00000KT 10SM SCT095 32/22 A2996
NE 35 nm 14' KDCA 142252Z 21009KT 10SM FEW080 FEW250 36/16 A2993
S 36 nm 493' KLKU 142335Z 16004KT 10SM SCT110 30/22 A2999
W 37 nm 902' KLUA 142335Z 00000KT 10SM 33/17 A2998
NW 39 nm 726' KOKV 142335Z 18005KT 10SM OVC090 32/18 A2996
E 41 nm 279' KADW 142255Z 13007KT 10SM CLR 32/23 A2993
NE 43 nm 538' KGAI 142256Z 20006KT 10SM CLR A2997
NE 43 nm 48' KCGS 142325Z 12007KT 090V150 10SM CLR 33/23 A2995
SW 44 nm 640' KCHO 142253Z 16003KT 10SM SCT100 BKN110 34/18 A2997
N 50 nm 564' KMRB 142253Z 28008KT 10SM SCT110 35/13 A2993
N 52 nm 308' KFDK 142247Z 18005KT 10SM CLR 36/17 A2994
NE 53 nm 150' KFME 142329Z 14005KT 10SM CLR 30/23 A2997
S 54 nm 206' KOFP 142254Z 22005KT 10SM CLR 35/21 A2998
SE 58 nm 135' KXSA 142335Z 00000KT 10SM CLR 32/25 A2998
W 59 nm 1201' KSHD 142335Z 24008KT 10SM CLR 33/16 A3003
W 60 nm 1165' KVBW 142335Z 29004KT 10SM SCT095 33/17 A3000
NE 60 nm 143' KBWI 142254Z 16007KT 10SM FEW065 FEW250 32/22 A2994
E 63 nm 38' KNHK 142252Z 14007KT 10SM CLR 32/25 A2996
N 67 nm 703' KHGR 142253Z 16005KT 10SM CLR 35/18 A2995
S 67 nm 167' KRIC 142254Z 20007KT 10SM FEW060 34/22 A2998
NE 69 nm 789' KDMW 142320Z 18003KT 10SM CLR 36/18 A2997
S 71 nm 236' KFCI 142256Z 20004KT 10SM CLR 33/23 A2999
NE 75 nm 21' KMTN 142255Z 15005KT 10SM CLR 30/23 A2996
E 78 nm 72' KESN 142245Z 17006KT 10SM CLR 31/23 A2997
SE 78 nm 20' KFYJ 142335Z 00000KT 5SM CLR 32/26 A2998
NW 78 nm 775' KCBE 142325Z 26011KT 210V270 10SM CLR 34/14 A3002
E 78 nm 19' KCGE 142325Z 18007KT 10SM CLR 31/22 A2997
SW 81 nm 415' KFVX 142335Z 20004KT 10SM CLR 31/23 A2998
S 84 nm 192' KPTB 142335Z 00000KT 10SM CLR 31/25 A3000
NE 88 nm 494' KTHV 142253Z VRB04KT 10SM CLR 33/21 A2995
NE 89 nm 44' KAPG 122034Z VRB05KT 7SM -RA SCT030 OVC050 26/22 A3014
S 91 nm 437' KBKT 142255Z 19004KT 10SM CLR 33/23 A3000
SE 92 nm 5' KTGI 142335Z 14011G15KT 10SM CLR 30/26 A2998
NW 97 nm 1161' KHMZ 142315Z 27007KT 10SM CLR 32/11 A2999
TAFs for airports near HWY, sorted by distance:
E 19 nm 10' KNYG TAF KNYG 1321/1421 VRB06KT 9999 SKC QNH3005INS
  FM140600 VRB06KT 9999 SCT200 QNH2995INS LAST NO
  AMDS AFT 1321 NEXT 1509 AUTOMATED SENSOR METWATCH 1321 TIL 1511 T32/1321Z T22/1411Z
NE 24 nm 312' KIAD KIAD 142102Z 1421/1524 23009KT P6SM FEW250
  FM142300 21005KT P6SM FEW250
  FM150300 18004KT P6SM FEW250
  FM151600 26005KT P6SM FEW250
E 26 nm 73' KDAA TAF KDAA 121200Z 1212/1318 VRB05KT 9999 VCSH SCT030 BKN060 OVC100 QNH2996INS
  BECMG 1212/1213 03006KT 9000 -SHRA FEW015 BKN030 OVC070 QNH3000INS
  BECMG 1213/1214 04007KT 8000 -SHRA VCTS SCT015CB OVC030 QNH3011INS
  TEMPO 1214/1301 VRB12G20KT 4800 TSRA BR SCT008 OVC015CB
  BECMG 1302/1303 VRB06KT 9000 -RA OVC010 QNH3010INS
  BECMG 1306/1307 VRB05KT 4800 -RA BR OVC008 QNH3011INS
  BECMG 1312/1313 16007KT 8000 -SHRA VCTS SCT009 BKN015CB OVC030 QNH3012INS TX27/1220Z TN24/1310Z
NE 35 nm 14' KDCA KDCA 142102Z 1421/1524 21008G16KT P6SM VCTS SCT060CB SCT250
  FM142200 08008G16KT P6SM FEW200
  FM150500 17005KT P6SM FEW200
  FM151600 26005KT P6SM FEW200
E 41 nm 279' KADW TAF
  AMD KADW 141910Z 1419/1523 27012KT 9999 VCTS SCT050CB QNH2997INS
  TEMPO 1419/1421 29012G18KT 8000 -TSRA BKN050CB
  BECMG 1420/1421 22006KT 9999 NSW SCT050 QNH2994INS
  BECMG 1500/1501 17006KT 9999 FEW070 QNH2992INS
  BECMG 1506/1507 26006KT 9999 SCT060 SCT250 QNH2986INS
  BECMG 1518/1519 23012KT 9999 -SHRA VCTS BKN040CB QNH2983INS TX38/1419Z TN23/1509Z
SW 44 nm 640' KCHO TAF
  AMD KCHO 142008Z 1420/1518 16008G16KT P6SM FEW250
  FM150000 00000KT P6SM FEW250
  FM150500 18005KT P6SM FEW250
  FM151600 26003KT P6SM FEW200
N 50 nm 564' KMRB KMRB 141727Z 1418/1518 25006KT P6SM FEW250
  FM142300 21005KT P6SM FEW250
  FM150300 17004KT P6SM FEW250
  FM151000 23005KT P6SM FEW200
  FM151400 28004KT P6SM FEW200
NE 60 nm 143' KBWI TAF
  AMD KBWI 142102Z 1421/1524 18009G15KT P6SM VCTS SCT060CB SCT250
  FM142300 20004KT P6SM FEW200
  FM150500 17004KT P6SM FEW250
  FM151600 25005KT P6SM FEW200
E 63 nm 38' KNHK TAF KNHK 1423/1523 17010KT 9999 VCTS FEW030CB SCT060 BKN100 QNH2993INS
  BECMG 1504/1506 20008KT 9999 NSW FEW050 SCT070 BKN090 QNH2989INS
  BECMG 1510/1512 19007KT 9999 FEW120 QNH2987INS AUTOMATED SENSOR METWATCH 1423 TIL 1508 TX34/1521Z TN27/1509Z FN00277
S 67 nm 167' KRIC KRIC 141722Z 1418/1518 19008KT P6SM SCT060
  FM142300 22005KT P6SM SKC
NE 75 nm 21' KMTN KMTN 142001Z 1420/1518 15012G20KT P6SM FEW250
  FM150000 20005KT P6SM FEW250
  FM150400 17005KT P6SM FEW250
  FM151600 21005KT P6SM FEW200

Shortcut to this page: http://wxbay.com.

Data may contain errors.